Time;durP1;ratioP1;P1;durP2;ratioP2;P2;SDS_P1;SDS_P2;PMS_P1;PMS_P2;Temp;Humidity;BMP_temperature;BMP_pressure;BME280_temperature;BME280_humidity;BME280_pressure;Samples;Min_cycle;Max_cycle;Signal;HPM_P1;HPM_P2
2023/12/25 00:00:39;;;;;;;;;;;11.60;99.90;;;;;;5092583;28;20013;-36
2023/12/25 00:03:06;;;;;;;;;;;11.60;99.90;;;;;;5090405;28;19939;-35
2023/12/25 00:05:32;;;;;;;;;;;11.60;99.90;;;;;;5089449;28;19938;-36
2023/12/25 00:07:59;;;;;;;;;;;11.60;99.90;;;;;;5089989;28;20021;-36
2023/12/25 00:10:25;;;;;;;;;;;11.50;99.90;;;;;;5091715;28;19936;-35
2023/12/25 00:12:52;;;;;;;;;;;11.50;99.90;;;;;;5091467;28;19988;-35
2023/12/25 00:15:19;;;;;;;;;;;11.50;99.90;;;;;;5084597;28;19942;-36
2023/12/25 00:17:47;;;;;;;;;;;11.50;99.90;;;;;;5102073;28;19975;-35
2023/12/25 00:20:13;;;;;;;;;;;11.50;99.90;;;;;;5111529;28;19935;-37
2023/12/25 00:22:40;;;;;;;;;;;11.50;99.90;;;;;;5107106;28;20032;-36
2023/12/25 00:25:07;;;;;;;;;;;11.50;99.90;;;;;;5109616;28;19935;-36
2023/12/25 00:27:33;;;;;;;;;;;11.50;99.90;;;;;;5085456;28;20500;-36
2023/12/25 00:30:00;;;;;;;;;;;11.50;99.90;;;;;;5078746;28;20453;-34
2023/12/25 00:32:27;;;;;;;;;;;11.50;99.90;;;;;;5087808;28;19984;-36
2023/12/25 00:34:55;;;;;;;;;;;11.50;99.90;;;;;;5077980;28;19991;-36
2023/12/25 00:37:21;;;;;;;;;;;11.50;99.90;;;;;;5090413;28;20387;-35
2023/12/25 00:39:48;;;;;;;;;;;11.40;99.90;;;;;;5090423;28;19997;-37
2023/12/25 00:42:14;;;;;;;;;;;11.40;99.90;;;;;;5089613;28;19996;-35
2023/12/25 00:44:41;;;;;;;;;;;11.50;99.90;;;;;;5110394;28;19938;-36
2023/12/25 00:47:07;;;;;;;;;;;11.40;99.90;;;;;;5089571;28;19960;-36
2023/12/25 00:49:34;;;;;;;;;;;11.40;99.90;;;;;;5091616;28;19952;-35
2023/12/25 00:52:02;;;;;;;;;;;11.30;99.90;;;;;;5109736;28;20557;-35
2023/12/25 00:54:31;;;;;;;;;;;11.30;99.90;;;;;;5087178;28;20378;-36
2023/12/25 00:56:57;;;;;;;;;;;11.30;99.90;;;;;;5088220;28;19959;-36
2023/12/25 00:59:24;;;;;;;;;;;11.30;99.90;;;;;;5090030;28;19935;-36
2023/12/25 01:01:51;;;;;;;;;;;11.30;99.90;;;;;;5111190;28;20357;-36
2023/12/25 01:04:18;;;;;;;;;;;11.30;99.90;;;;;;5090372;28;19938;-37
2023/12/25 01:06:44;;;;;;;;;;;11.30;99.90;;;;;;5110746;28;19928;-36
2023/12/25 01:09:12;;;;;;;;;;;11.20;99.90;;;;;;5089701;28;20487;-36
2023/12/25 01:11:40;;;;;;;;;;;11.20;99.90;;;;;;5091956;28;19936;-35
2023/12/25 01:14:07;;;;;;;;;;;11.10;99.90;;;;;;5111067;28;19996;-35
2023/12/25 01:16:33;;;;;;;;;;;11.10;99.90;;;;;;5112001;28;20229;-35
2023/12/25 01:19:00;;;;;;;;;;;11.10;99.90;;;;;;5089724;28;19989;-37
2023/12/25 01:21:26;;;;;;;;;;;11.00;99.90;;;;;;5089290;28;19982;-34
2023/12/25 01:23:53;;;;;;;;;;;11.10;99.90;;;;;;5110507;28;19938;-35
2023/12/25 01:26:21;;;;;;;;;;;11.00;99.90;;;;;;5110291;28;20567;-33
2023/12/25 01:28:48;;;;;;;;;;;11.00;99.90;;;;;;5093923;28;19924;-35
2023/12/25 01:31:14;;;;;;;;;;;11.00;99.90;;;;;;5093179;28;20039;-36
2023/12/25 01:33:41;;;;;;;;;;;11.00;99.90;;;;;;5096388;28;20364;-36
2023/12/25 01:36:07;;;;;;;;;;;11.00;99.90;;;;;;5093351;28;19992;-34
2023/12/25 01:38:34;;;;;;;;;;;11.00;99.90;;;;;;5094352;28;19942;-37
2023/12/25 01:41:01;;;;;;;;;;;11.00;99.90;;;;;;5115718;28;20298;-36
2023/12/25 01:43:29;;;;;;;;;;;11.00;99.90;;;;;;5093645;28;19938;-36
2023/12/25 01:45:55;;;;;;;;;;;11.00;99.90;;;;;;5092573;28;20380;-37
2023/12/25 01:48:22;;;;;;;;;;;10.90;99.90;;;;;;5111159;28;20011;-35
2023/12/25 01:50:48;;;;;;;;;;;10.90;99.90;;;;;;5092609;28;19977;-35
2023/12/25 01:53:15;;;;;;;;;;;10.90;99.90;;;;;;5110623;28;20010;-35
2023/12/25 01:55:42;;;;;;;;;;;10.90;99.90;;;;;;5096364;28;20006;-35
2023/12/25 01:58:08;;;;;;;;;;;10.90;99.90;;;;;;5092616;28;19941;-36
2023/12/25 02:00:36;;;;;;;;;;;11.00;99.90;;;;;;5095144;28;19966;-35
2023/12/25 02:03:03;;;;;;;;;;;10.90;99.90;;;;;;5092598;28;19939;-36
2023/12/25 02:05:30;;;;;;;;;;;11.00;99.90;;;;;;5083924;28;19937;-35
2023/12/25 02:07:56;;;;;;;;;;;10.90;99.90;;;;;;5102569;28;20097;-34
2023/12/25 02:10:26;;;;;;;;;;;10.90;99.90;;;;;;5094217;28;20015;-35
2023/12/25 02:12:53;;;;;;;;;;;10.90;99.90;;;;;;5113453;28;20314;-37
2023/12/25 02:15:20;;;;;;;;;;;10.90;99.90;;;;;;5092793;28;20050;-37
2023/12/25 02:17:51;;;;;;;;;;;10.90;99.90;;;;;;5091952;28;20270;-39
2023/12/25 02:20:17;;;;;;;;;;;10.90;99.90;;;;;;5092271;28;19999;-35
2023/12/25 02:22:44;;;;;;;;;;;10.90;99.90;;;;;;5092468;28;19939;-37
2023/12/25 02:25:15;;;;;;;;;;;10.90;99.90;;;;;;5093541;28;19992;-35
2023/12/25 02:27:43;;;;;;;;;;;10.90;99.90;;;;;;5094286;28;20088;-36
2023/12/25 02:30:10;;;;;;;;;;;10.90;99.90;;;;;;5092483;28;19954;-35
2023/12/25 02:32:36;;;;;;;;;;;10.90;99.90;;;;;;5112485;28;19924;-34
2023/12/25 02:35:03;;;;;;;;;;;10.90;99.90;;;;;;5092264;28;20528;-34
2023/12/25 02:37:29;;;;;;;;;;;10.90;99.90;;;;;;5111969;28;20379;-34
2023/12/25 02:39:56;;;;;;;;;;;10.90;99.90;;;;;;5112436;28;20395;-38
2023/12/25 02:42:23;;;;;;;;;;;10.90;99.90;;;;;;5113151;28;20432;-37
2023/12/25 02:44:51;;;;;;;;;;;10.90;99.90;;;;;;5087334;28;19939;-35
2023/12/25 02:47:17;;;;;;;;;;;10.90;99.90;;;;;;5091931;28;19941;-36
2023/12/25 02:49:44;;;;;;;;;;;10.80;99.90;;;;;;5096141;28;20007;-35
2023/12/25 02:52:11;;;;;;;;;;;10.90;99.90;;;;;;5088389;28;20000;-36
2023/12/25 02:54:37;;;;;;;;;;;10.80;99.90;;;;;;5094403;28;20348;-36
2023/12/25 02:57:04;;;;;;;;;;;10.80;99.90;;;;;;5091638;28;20005;-35
2023/12/25 02:59:31;;;;;;;;;;;10.80;99.90;;;;;;5093701;28;20388;-34
2023/12/25 03:01:59;;;;;;;;;;;10.80;99.90;;;;;;5112821;28;19924;-35
2023/12/25 03:04:25;;;;;;;;;;;10.80;99.90;;;;;;5092367;28;19935;-35
2023/12/25 03:06:52;;;;;;;;;;;10.70;99.90;;;;;;5091562;28;19944;-36
2023/12/25 03:09:19;;;;;;;;;;;10.80;99.90;;;;;;5091699;28;19954;-35
2023/12/25 03:11:46;;;;;;;;;;;10.80;99.90;;;;;;5086068;28;19965;-37
2023/12/25 03:14:12;;;;;;;;;;;10.80;99.90;;;;;;5093565;28;19938;-36
2023/12/25 03:16:39;;;;;;;;;;;10.80;99.90;;;;;;5113125;28;19944;-36
2023/12/25 03:19:07;;;;;;;;;;;10.80;99.90;;;;;;5113078;28;19977;-36
2023/12/25 03:21:34;;;;;;;;;;;10.90;99.90;;;;;;5093289;28;19934;-36
2023/12/25 03:24:00;;;;;;;;;;;10.80;99.90;;;;;;5074812;28;20371;-35
2023/12/25 03:26:27;;;;;;;;;;;10.80;99.90;;;;;;5092490;28;20008;-35
2023/12/25 03:28:54;;;;;;;;;;;10.90;99.90;;;;;;5090595;28;19955;-37
2023/12/25 03:31:20;;;;;;;;;;;10.90;99.90;;;;;;5091244;28;19931;-37
2023/12/25 03:33:47;;;;;;;;;;;10.90;99.90;;;;;;5090969;28;20428;-35
2023/12/25 03:36:15;;;;;;;;;;;10.90;99.90;;;;;;5107514;28;19934;-36
2023/12/25 03:38:41;;;;;;;;;;;10.90;99.90;;;;;;5093448;28;19985;-36
2023/12/25 03:41:08;;;;;;;;;;;10.90;99.90;;;;;;5090584;28;20013;-37
2023/12/25 03:43:36;;;;;;;;;;;11.00;99.90;;;;;;5093072;28;19940;-35
2023/12/25 03:46:02;;;;;;;;;;;11.00;99.90;;;;;;5090679;28;19939;-36
2023/12/25 03:48:29;;;;;;;;;;;11.00;99.90;;;;;;5092581;28;19978;-36
2023/12/25 03:50:56;;;;;;;;;;;11.00;99.90;;;;;;5089900;28;20019;-36
2023/12/25 03:53:24;;;;;;;;;;;10.90;99.90;;;;;;5109282;28;20383;-34
2023/12/25 03:55:50;;;;;;;;;;;11.00;99.90;;;;;;5090145;28;19991;-35
2023/12/25 03:58:17;;;;;;;;;;;10.90;99.90;;;;;;5091012;28;19982;-35
2023/12/25 04:00:44;;;;;;;;;;;10.90;99.90;;;;;;5092992;28;20038;-35
2023/12/25 04:03:09;;;;;;;;;;;10.90;99.90;;;;;;5090606;28;20394;-36
2023/12/25 04:05:36;;;;;;;;;;;10.90;99.90;;;;;;5093371;28;20002;-35
2023/12/25 04:08:03;;;;;;;;;;;10.90;99.90;;;;;;5112252;28;19946;-36
2023/12/25 04:10:31;;;;;;;;;;;10.90;99.90;;;;;;5109801;28;19955;-33
2023/12/25 04:12:57;;;;;;;;;;;10.90;99.90;;;;;;5091152;28;19931;-35
2023/12/25 04:15:24;;;;;;;;;;;10.90;99.90;;;;;;5090923;28;19954;-35
2023/12/25 04:17:51;;;;;;;;;;;10.90;99.90;;;;;;5112862;28;19993;-34
2023/12/25 04:20:17;;;;;;;;;;;10.80;99.90;;;;;;5090247;28;19939;-36
2023/12/25 04:22:44;;;;;;;;;;;10.80;99.90;;;;;;5093596;28;19966;-35
2023/12/25 04:25:10;;;;;;;;;;;10.90;99.90;;;;;;5111361;28;20354;-36
2023/12/25 04:27:38;;;;;;;;;;;10.90;99.90;;;;;;5091750;28;20316;-38
2023/12/25 04:30:06;;;;;;;;;;;10.80;99.90;;;;;;5112512;28;20022;-36
2023/12/25 04:32:32;;;;;;;;;;;10.90;99.90;;;;;;5092769;28;19991;-36
2023/12/25 04:34:59;;;;;;;;;;;10.90;99.90;;;;;;5089933;28;19924;-35
2023/12/25 04:37:26;;;;;;;;;;;10.90;99.90;;;;;;5091435;28;19924;-36
2023/12/25 04:39:52;;;;;;;;;;;10.80;99.90;;;;;;5090202;28;19938;-36
2023/12/25 04:42:19;;;;;;;;;;;10.90;99.90;;;;;;5108570;28;20352;-37
2023/12/25 04:44:47;;;;;;;;;;;10.90;99.90;;;;;;5103744;28;19939;-36
2023/12/25 04:47:13;;;;;;;;;;;10.90;99.90;;;;;;5111155;28;20333;-36
2023/12/25 04:49:40;;;;;;;;;;;10.90;99.90;;;;;;5092809;28;19958;-34
2023/12/25 04:52:07;;;;;;;;;;;10.90;99.90;;;;;;5108088;28;19968;-35
2023/12/25 04:54:33;;;;;;;;;;;10.90;99.90;;;;;;5107221;28;19946;-36
2023/12/25 04:57:00;;;;;;;;;;;10.90;99.90;;;;;;5109545;28;19991;-36
2023/12/25 04:59:27;;;;;;;;;;;11.00;99.90;;;;;;5090929;28;19938;-34
2023/12/25 05:01:55;;;;;;;;;;;10.90;99.90;;;;;;5091385;28;19939;-37
2023/12/25 05:04:22;;;;;;;;;;;11.00;99.90;;;;;;5105804;28;20474;-35
2023/12/25 05:06:48;;;;;;;;;;;11.00;99.90;;;;;;5106369;28;20027;-35
2023/12/25 05:09:15;;;;;;;;;;;10.90;99.90;;;;;;5114278;28;19957;-36
2023/12/25 05:11:42;;;;;;;;;;;10.90;99.90;;;;;;5114791;28;19991;-37
2023/12/25 05:14:08;;;;;;;;;;;10.90;99.90;;;;;;5093489;28;19946;-36
2023/12/25 05:16:35;;;;;;;;;;;10.90;99.90;;;;;;5109153;28;20410;-36
2023/12/25 05:19:03;;;;;;;;;;;11.00;99.90;;;;;;5104002;28;19998;-36
2023/12/25 05:21:30;;;;;;;;;;;10.90;99.90;;;;;;5095080;28;19988;-36
2023/12/25 05:23:56;;;;;;;;;;;10.90;99.90;;;;;;5114461;28;19938;-35
2023/12/25 05:26:25;;;;;;;;;;;10.90;99.90;;;;;;5114472;28;19954;-35
2023/12/25 05:28:51;;;;;;;;;;;10.90;99.90;;;;;;5093685;28;20372;-34
2023/12/25 05:31:18;;;;;;;;;;;10.90;99.90;;;;;;5092808;28;19987;-38
2023/12/25 05:33:45;;;;;;;;;;;10.90;99.90;;;;;;5094573;28;20061;-37
2023/12/25 05:36:13;;;;;;;;;;;10.90;99.90;;;;;;5092300;28;20295;-36
2023/12/25 05:38:39;;;;;;;;;;;10.90;99.90;;;;;;5097139;28;19940;-35
2023/12/25 05:41:06;;;;;;;;;;;10.90;99.90;;;;;;5093615;28;19968;-37
2023/12/25 05:43:32;;;;;;;;;;;10.90;99.90;;;;;;5095984;28;19944;-37
2023/12/25 05:45:59;;;;;;;;;;;10.90;99.90;;;;;;5093762;28;19970;-35
2023/12/25 05:48:26;;;;;;;;;;;10.90;99.90;;;;;;5108999;28;19944;-35
2023/12/25 05:50:53;;;;;;;;;;;10.90;99.90;;;;;;5076754;28;20378;-36
2023/12/25 05:53:21;;;;;;;;;;;10.90;99.90;;;;;;5087691;28;20001;-35
2023/12/25 05:55:48;;;;;;;;;;;10.90;99.90;;;;;;5092940;28;20001;-35
2023/12/25 05:58:14;;;;;;;;;;;10.90;99.90;;;;;;5110232;28;20367;-35
2023/12/25 06:00:42;;;;;;;;;;;10.80;99.90;;;;;;5095912;28;19938;-37
2023/12/25 06:03:08;;;;;;;;;;;10.80;99.90;;;;;;5088814;28;19939;-36
2023/12/25 06:05:35;;;;;;;;;;;10.80;99.90;;;;;;5113071;28;19987;-35
2023/12/25 06:08:01;;;;;;;;;;;10.80;99.90;;;;;;5087351;28;19975;-35
2023/12/25 06:10:30;;;;;;;;;;;10.80;99.90;;;;;;5111984;28;20016;-34
2023/12/25 06:12:57;;;;;;;;;;;10.80;99.90;;;;;;5093451;28;19989;-36
2023/12/25 06:15:23;;;;;;;;;;;10.80;99.90;;;;;;5110656;28;19983;-36
2023/12/25 06:17:50;;;;;;;;;;;10.80;99.90;;;;;;5114550;28;20377;-34
2023/12/25 06:20:17;;;;;;;;;;;10.80;99.90;;;;;;5088959;28;19987;-35
2023/12/25 06:22:43;;;;;;;;;;;10.80;99.90;;;;;;5096326;28;19939;-35
2023/12/25 06:25:10;;;;;;;;;;;10.70;99.90;;;;;;5091288;28;20033;-34
2023/12/25 06:27:38;;;;;;;;;;;10.70;99.90;;;;;;5094347;28;20416;-35
2023/12/25 06:30:05;;;;;;;;;;;10.70;99.90;;;;;;5093484;28;20368;-35
2023/12/25 06:32:32;;;;;;;;;;;10.70;99.90;;;;;;5088817;28;19935;-36
2023/12/25 06:34:58;;;;;;;;;;;10.60;99.90;;;;;;5092714;28;19949;-37
2023/12/25 06:37:25;;;;;;;;;;;10.60;99.90;;;;;;5082311;28;20394;-35
2023/12/25 06:39:51;;;;;;;;;;;10.60;99.90;;;;;;5112599;28;19938;-34
2023/12/25 06:42:18;;;;;;;;;;;10.60;99.90;;;;;;5093146;28;20465;-35
2023/12/25 06:44:47;;;;;;;;;;;10.50;99.90;;;;;;5092539;28;20352;-35
2023/12/25 06:47:13;;;;;;;;;;;10.50;99.90;;;;;;5108696;28;20156;-35
2023/12/25 06:49:40;;;;;;;;;;;10.40;99.90;;;;;;5094383;28;20048;-33
2023/12/25 06:52:07;;;;;;;;;;;10.40;99.90;;;;;;5086108;28;19941;-36
2023/12/25 06:54:34;;;;;;;;;;;10.40;99.90;;;;;;5093049;28;19942;-35
2023/12/25 06:57:02;;;;;;;;;;;10.40;99.90;;;;;;5091860;28;20449;-35
2023/12/25 06:59:28;;;;;;;;;;;10.30;99.90;;;;;;5111533;28;19942;-34
2023/12/25 07:01:56;;;;;;;;;;;10.30;99.90;;;;;;5090372;28;20414;-35
2023/12/25 07:04:23;;;;;;;;;;;10.30;99.90;;;;;;5110889;28;20355;-36
2023/12/25 07:06:50;;;;;;;;;;;10.30;99.90;;;;;;5091606;28;20393;-35
2023/12/25 07:09:17;;;;;;;;;;;10.30;99.90;;;;;;5090794;28;19992;-36
2023/12/25 07:11:43;;;;;;;;;;;10.20;99.90;;;;;;5095252;28;19946;-38
2023/12/25 07:14:10;;;;;;;;;;;10.30;99.90;;;;;;5092033;28;19963;-35
2023/12/25 07:16:36;;;;;;;;;;;10.20;99.90;;;;;;5111452;28;19991;-35
2023/12/25 07:19:04;;;;;;;;;;;10.20;99.90;;;;;;5091011;28;19938;-36
2023/12/25 07:21:31;;;;;;;;;;;10.20;99.90;;;;;;5092735;28;19956;-34
2023/12/25 07:23:58;;;;;;;;;;;10.20;99.90;;;;;;5091791;28;19942;-35
2023/12/25 07:26:24;;;;;;;;;;;10.20;99.90;;;;;;5089733;28;19956;-34
2023/12/25 07:28:51;;;;;;;;;;;10.10;99.90;;;;;;5075295;28;19996;-34
2023/12/25 07:31:18;;;;;;;;;;;10.10;99.90;;;;;;5085744;28;19998;-35
2023/12/25 07:33:44;;;;;;;;;;;10.10;99.90;;;;;;5090253;28;19962;-34
2023/12/25 07:36:12;;;;;;;;;;;10.10;99.90;;;;;;5091298;28;20344;-34
2023/12/25 07:38:39;;;;;;;;;;;10.00;99.90;;;;;;5111553;28;19934;-35
2023/12/25 07:41:07;;;;;;;;;;;10.10;99.90;;;;;;5090310;28;19947;-36
2023/12/25 07:43:35;;;;;;;;;;;10.00;99.90;;;;;;5093464;28;19942;-34
2023/12/25 07:46:02;;;;;;;;;;;10.10;99.90;;;;;;5089847;28;19935;-35
2023/12/25 07:48:29;;;;;;;;;;;10.00;99.90;;;;;;5091273;28;20440;-36
2023/12/25 07:50:59;;;;;;;;;;;10.00;99.90;;;;;;5111081;28;20013;-35
2023/12/25 07:53:27;;;;;;;;;;;10.00;99.90;;;;;;5112727;28;19927;-35
2023/12/25 07:55:53;;;;;;;;;;;10.00;99.90;;;;;;5089705;28;19990;-34
2023/12/25 07:58:20;;;;;;;;;;;9.90;99.90;;;;;;5090140;28;19934;-36
2023/12/25 08:00:48;;;;;;;;;;;10.00;99.90;;;;;;5112007;28;20400;-35
2023/12/25 08:03:14;;;;;;;;;;;9.90;99.90;;;;;;5091908;28;20408;-33
2023/12/25 08:05:41;;;;;;;;;;;9.90;99.90;;;;;;5079406;28;19991;-35
2023/12/25 08:08:08;;;;;;;;;;;9.90;99.90;;;;;;5112157;28;20353;-36
2023/12/25 08:10:35;;;;;;;;;;;9.90;99.90;;;;;;5087544;28;19952;-37
2023/12/25 08:13:02;;;;;;;;;;;9.90;99.90;;;;;;5085760;28;19977;-35
2023/12/25 08:15:29;;;;;;;;;;;9.90;99.90;;;;;;5087232;28;19951;-34
2023/12/25 08:17:56;;;;;;;;;;;9.90;99.90;;;;;;5087127;28;19939;-37
2023/12/25 08:20:22;;;;;;;;;;;9.90;99.90;;;;;;5088942;28;19941;-36
2023/12/25 08:22:49;;;;;;;;;;;9.90;99.90;;;;;;5083054;28;19990;-36
2023/12/25 08:25:16;;;;;;;;;;;9.90;99.90;;;;;;5106190;28;19935;-36
2023/12/25 08:27:44;;;;;;;;;;;9.90;99.90;;;;;;5093093;28;20054;-36
2023/12/25 08:30:11;;;;;;;;;;;9.80;99.90;;;;;;5090986;28;19983;-35
2023/12/25 08:32:38;;;;;;;;;;;9.80;99.90;;;;;;5092575;28;20451;-35
2023/12/25 08:35:05;;;;;;;;;;;9.80;99.90;;;;;;5088675;28;19940;-36
2023/12/25 08:37:31;;;;;;;;;;;9.80;99.90;;;;;;5090787;28;19935;-35
2023/12/25 08:39:58;;;;;;;;;;;9.80;99.90;;;;;;5088310;28;19924;-36
2023/12/25 08:42:25;;;;;;;;;;;9.80;99.90;;;;;;5108838;28;20038;-35
2023/12/25 08:44:53;;;;;;;;;;;9.80;99.90;;;;;;5089566;28;20037;-35
2023/12/25 08:47:19;;;;;;;;;;;9.80;99.90;;;;;;5089785;28;19946;-35
2023/12/25 08:49:46;;;;;;;;;;;9.80;99.90;;;;;;5089376;28;19938;-35
2023/12/25 08:52:12;;;;;;;;;;;9.80;99.90;;;;;;5087941;28;19941;-36
2023/12/25 08:54:39;;;;;;;;;;;9.80;99.90;;;;;;5092769;28;20003;-37
2023/12/25 08:57:06;;;;;;;;;;;9.80;99.90;;;;;;5090070;28;20417;-36
2023/12/25 08:59:32;;;;;;;;;;;9.70;99.90;;;;;;5089908;28;19924;-35
2023/12/25 09:02:00;;;;;;;;;;;9.70;99.90;;;;;;5110996;28;19996;-35
2023/12/25 09:04:27;;;;;;;;;;;9.70;99.90;;;;;;5109761;28;21111;-35
2023/12/25 09:06:54;;;;;;;;;;;9.80;99.90;;;;;;5099881;28;19960;-36
2023/12/25 09:09:20;;;;;;;;;;;9.80;99.90;;;;;;5103455;28;19940;-35
2023/12/25 09:11:47;;;;;;;;;;;9.80;99.90;;;;;;5107286;28;20038;-35
2023/12/25 09:14:14;;;;;;;;;;;9.80;99.90;;;;;;5109835;28;20389;-36
2023/12/25 09:16:40;;;;;;;;;;;9.80;99.90;;;;;;5089263;28;20023;-35
2023/12/25 09:19:08;;;;;;;;;;;9.80;99.90;;;;;;5088137;28;19924;-35
2023/12/25 09:21:38;;;;;;;;;;;9.80;99.90;;;;;;5110066;28;19989;-36
2023/12/25 09:24:05;;;;;;;;;;;9.80;99.90;;;;;;5110913;28;19924;-36
2023/12/25 09:26:32;;;;;;;;;;;9.80;99.90;;;;;;5110143;28;20401;-35
2023/12/25 09:28:58;;;;;;;;;;;9.80;99.90;;;;;;5106094;28;19993;-36
2023/12/25 09:31:25;;;;;;;;;;;9.80;99.90;;;;;;5090018;28;19955;-38
2023/12/25 09:33:52;;;;;;;;;;;9.90;99.90;;;;;;5110144;28;19961;-35
2023/12/25 09:36:19;;;;;;;;;;;9.90;99.90;;;;;;5088000;28;20036;-36
2023/12/25 09:38:46;;;;;;;;;;;9.90;99.90;;;;;;5088414;28;19944;-36
2023/12/25 09:41:13;;;;;;;;;;;9.90;99.90;;;;;;5105361;28;20359;-34
2023/12/25 09:43:39;;;;;;;;;;;10.00;99.90;;;;;;5086208;28;19982;-35
2023/12/25 09:46:06;;;;;;;;;;;9.90;99.90;;;;;;5102380;28;20397;-36
2023/12/25 09:48:33;;;;;;;;;;;10.00;99.90;;;;;;5093284;28;19957;-35
2023/12/25 09:51:00;;;;;;;;;;;10.10;99.90;;;;;;5114049;27;20402;-36
2023/12/25 09:53:28;;;;;;;;;;;10.00;99.90;;;;;;5092031;28;20296;-35
2023/12/25 09:55:55;;;;;;;;;;;10.10;99.90;;;;;;5114272;28;20357;-35
2023/12/25 09:58:21;;;;;;;;;;;10.10;99.90;;;;;;5091152;28;19945;-36
2023/12/25 10:00:48;;;;;;;;;;;10.10;99.90;;;;;;5088354;28;19971;-35
2023/12/25 10:03:15;;;;;;;;;;;10.10;99.90;;;;;;5081135;28;19990;-36
2023/12/25 10:05:41;;;;;;;;;;;10.20;99.90;;;;;;5095444;28;19987;-36
2023/12/25 10:08:08;;;;;;;;;;;10.30;99.90;;;;;;5090858;28;19977;-36
2023/12/25 10:10:36;;;;;;;;;;;10.30;99.90;;;;;;5110356;28;20360;-39
2023/12/25 10:13:03;;;;;;;;;;;10.30;99.90;;;;;;5094320;28;20349;-35
2023/12/25 10:15:30;;;;;;;;;;;10.30;99.90;;;;;;5093486;28;19934;-35
2023/12/25 10:18:03;;;;;;;;;;;10.30;99.90;;;;;;5091163;28;19943;-35
2023/12/25 10:20:30;;;;;;;;;;;10.40;99.90;;;;;;5110897;28;19940;-36
2023/12/25 10:22:57;;;;;;;;;;;10.30;99.90;;;;;;5092884;28;19930;-35
2023/12/25 10:25:25;;;;;;;;;;;10.40;99.90;;;;;;5107688;28;20029;-35
2023/12/25 10:27:53;;;;;;;;;;;10.40;99.90;;;;;;5090925;28;19958;-35
2023/12/25 10:30:20;;;;;;;;;;;10.40;99.90;;;;;;5088278;28;19947;-35
2023/12/25 10:32:47;;;;;;;;;;;10.40;99.90;;;;;;5111375;28;19948;-34
2023/12/25 10:35:14;;;;;;;;;;;10.40;99.90;;;;;;5092657;28;19935;-34
2023/12/25 10:37:41;;;;;;;;;;;10.50;99.90;;;;;;5094580;28;19930;-35
2023/12/25 10:40:23;;;;;;;;;;;10.50;99.90;;;;;;5088810;28;19979;-35
2023/12/25 10:42:49;;;;;;;;;;;10.50;99.90;;;;;;5075021;28;19940;-37
2023/12/25 10:45:21;;;;;;;;;;;10.50;99.90;;;;;;5092314;28;19988;-34
2023/12/25 10:47:49;;;;;;;;;;;10.50;99.90;;;;;;5113216;28;19944;-35
2023/12/25 10:50:15;;;;;;;;;;;10.50;99.90;;;;;;5091750;28;19940;-35
2023/12/25 10:52:42;;;;;;;;;;;10.50;99.90;;;;;;5092996;28;20040;-36
2023/12/25 10:55:08;;;;;;;;;;;10.50;99.90;;;;;;5089926;28;19974;-36
2023/12/25 10:57:35;;;;;;;;;;;10.50;99.90;;;;;;5092120;28;20056;-36
2023/12/25 11:00:03;;;;;;;;;;;10.50;99.90;;;;;;5089778;28;20047;-36
2023/12/25 11:02:31;;;;;;;;;;;10.50;99.90;;;;;;5112093;28;20029;-35
2023/12/25 11:04:58;;;;;;;;;;;10.40;99.90;;;;;;5111764;28;19999;-35
2023/12/25 11:07:25;;;;;;;;;;;10.40;99.90;;;;;;5091239;28;19935;-35
2023/12/25 11:09:52;;;;;;;;;;;10.40;99.90;;;;;;5089919;28;19924;-35
2023/12/25 11:12:19;;;;;;;;;;;10.40;99.90;;;;;;5090742;28;20050;-35
2023/12/25 11:14:47;;;;;;;;;;;10.40;99.90;;;;;;5089995;28;20315;-35
2023/12/25 11:17:14;;;;;;;;;;;10.40;99.90;;;;;;5090449;28;19988;-34
2023/12/25 11:19:43;;;;;;;;;;;10.40;99.90;;;;;;5090308;28;19975;-35
2023/12/25 11:22:29;;;;;;;;;;;10.40;99.90;;;;;;5087834;28;19944;-34
2023/12/25 11:24:56;;;;;;;;;;;10.40;99.90;;;;;;5097666;28;19935;-38
2023/12/25 11:27:23;;;;;;;;;;;10.40;99.90;;;;;;5085837;28;20064;-35
2023/12/25 11:29:50;;;;;;;;;;;10.40;99.90;;;;;;5090735;28;20289;-35
2023/12/25 11:32:17;;;;;;;;;;;10.50;99.90;;;;;;5087805;28;20058;-34
2023/12/25 11:34:48;;;;;;;;;;;10.50;99.90;;;;;;5086970;28;20350;-35
2023/12/25 11:37:18;;;;;;;;;;;10.50;99.90;;;;;;5074750;28;19947;-34
2023/12/25 11:39:48;;;;;;;;;;;10.50;99.90;;;;;;5074538;28;19944;-34
2023/12/25 11:42:15;;;;;;;;;;;10.60;99.90;;;;;;5083438;28;19977;-35
2023/12/25 11:44:42;;;;;;;;;;;10.60;99.90;;;;;;5089344;28;20304;-35
2023/12/25 11:47:10;;;;;;;;;;;10.60;99.90;;;;;;5097740;28;20291;-35
2023/12/25 11:49:39;;;;;;;;;;;10.60;99.90;;;;;;5087340;28;19935;-36
2023/12/25 11:52:07;;;;;;;;;;;10.60;99.90;;;;;;5092117;28;19948;-34
2023/12/25 11:54:36;;;;;;;;;;;10.70;99.90;;;;;;5105472;28;20407;-35
2023/12/25 11:57:16;;;;;;;;;;;10.60;99.90;;;;;;5087271;28;19966;-36
2023/12/25 11:59:42;;;;;;;;;;;10.70;99.90;;;;;;5087720;28;19938;-35
2023/12/25 12:02:09;;;;;;;;;;;10.60;99.90;;;;;;5082097;28;19993;-35
2023/12/25 12:04:36;;;;;;;;;;;10.60;99.90;;;;;;5090584;28;19998;-35
2023/12/25 12:07:03;;;;;;;;;;;10.60;99.90;;;;;;5101762;28;19999;-33
2023/12/25 12:09:31;;;;;;;;;;;10.70;99.90;;;;;;5102832;28;19939;-35
2023/12/25 12:11:57;;;;;;;;;;;10.70;99.90;;;;;;5084039;28;19962;-36
2023/12/25 12:14:24;;;;;;;;;;;10.70;99.90;;;;;;5099257;28;19935;-35
2023/12/25 12:16:51;;;;;;;;;;;10.70;99.90;;;;;;5080913;28;20398;-37
2023/12/25 12:19:18;;;;;;;;;;;10.80;99.90;;;;;;5078748;28;19963;-36
2023/12/25 12:21:46;;;;;;;;;;;10.80;99.90;;;;;;5077386;28;19935;-35
2023/12/25 12:24:25;;;;;;;;;;;10.90;99.90;;;;;;5075020;28;20043;-36
2023/12/25 12:26:54;;;;;;;;;;;10.90;99.90;;;;;;5076976;28;19961;-34
2023/12/25 12:29:19;;;;;;;;;;;11.00;99.90;;;;;;5084479;28;19938;-35
2023/12/25 12:31:46;;;;;;;;;;;11.10;99.90;;;;;;5086048;28;19924;-35
2023/12/25 12:34:12;;;;;;;;;;;11.10;99.90;;;;;;5087634;28;19977;-34
2023/12/25 12:36:39;;;;;;;;;;;11.10;99.90;;;;;;5085894;28;19934;-35
2023/12/25 12:39:06;;;;;;;;;;;11.10;99.90;;;;;;5087966;28;19934;-33
2023/12/25 12:41:33;;;;;;;;;;;11.10;99.90;;;;;;5107489;28;19924;-34
2023/12/25 12:44:01;;;;;;;;;;;11.10;99.90;;;;;;5084247;28;19980;-36
2023/12/25 12:46:28;;;;;;;;;;;11.10;99.90;;;;;;5093101;28;19946;-34
2023/12/25 12:48:54;;;;;;;;;;;11.10;99.90;;;;;;5088248;28;19938;-35
2023/12/25 12:51:23;;;;;;;;;;;11.10;99.90;;;;;;5087956;28;19989;-34
2023/12/25 12:53:50;;;;;;;;;;;11.10;99.90;;;;;;5088528;28;19948;-34
2023/12/25 12:56:17;;;;;;;;;;;11.10;99.90;;;;;;5090833;28;19985;-35
2023/12/25 12:58:43;;;;;;;;;;;11.10;99.90;;;;;;5109985;28;19951;-35
2023/12/25 13:01:14;;;;;;;;;;;11.10;99.90;;;;;;5109786;28;19940;-35
2023/12/25 13:03:42;;;;;;;;;;;11.10;99.90;;;;;;5094288;28;19993;-35
2023/12/25 13:06:09;;;;;;;;;;;11.10;99.90;;;;;;5092143;28;19956;-36
2023/12/25 13:08:35;;;;;;;;;;;11.10;99.90;;;;;;5092844;28;19946;-35
2023/12/25 13:11:02;;;;;;;;;;;11.10;99.90;;;;;;5111245;28;19950;-37
2023/12/25 13:13:30;;;;;;;;;;;11.10;99.90;;;;;;5094181;28;19966;-35
2023/12/25 13:15:57;;;;;;;;;;;11.20;99.90;;;;;;5111282;28;19938;-34
2023/12/25 13:18:25;;;;;;;;;;;11.10;99.90;;;;;;5094584;28;19995;-35
2023/12/25 13:20:52;;;;;;;;;;;11.20;99.90;;;;;;5111349;28;19947;-35
2023/12/25 13:23:18;;;;;;;;;;;11.20;99.90;;;;;;5094218;28;21344;-34
2023/12/25 13:25:45;;;;;;;;;;;11.20;99.90;;;;;;5091084;28;20393;-34
2023/12/25 13:28:12;;;;;;;;;;;11.20;99.90;;;;;;5093237;28;20766;-35
2023/12/25 13:30:38;;;;;;;;;;;11.20;99.90;;;;;;5104413;28;20363;-35
2023/12/25 13:33:05;;;;;;;;;;;11.20;99.90;;;;;;5109551;28;19937;-35
2023/12/25 13:35:33;;;;;;;;;;;11.20;99.90;;;;;;5114705;28;19948;-36
2023/12/25 13:38:00;;;;;;;;;;;11.20;99.90;;;;;;5114768;28;19936;-36
2023/12/25 13:40:27;;;;;;;;;;;11.20;99.90;;;;;;5097644;28;19944;-34
2023/12/25 13:42:54;;;;;;;;;;;11.20;99.90;;;;;;5096873;28;19941;-35
2023/12/25 13:45:20;;;;;;;;;;;11.20;99.90;;;;;;5100726;28;19944;-35
2023/12/25 13:47:47;;;;;;;;;;;11.20;99.90;;;;;;5095149;28;19938;-36
2023/12/25 13:50:14;;;;;;;;;;;11.20;99.90;;;;;;5114249;28;19940;-36
2023/12/25 13:52:42;;;;;;;;;;;11.20;99.90;;;;;;5090172;28;19965;-35
2023/12/25 13:55:09;;;;;;;;;;;11.20;99.90;;;;;;5113491;28;19940;-35
2023/12/25 13:57:35;;;;;;;;;;;11.10;99.90;;;;;;5096412;28;19982;-36
2023/12/25 14:00:03;;;;;;;;;;;11.10;99.90;;;;;;5112415;28;19946;-34
2023/12/25 14:02:30;;;;;;;;;;;11.10;99.90;;;;;;5095936;28;19935;-35
2023/12/25 14:04:57;;;;;;;;;;;11.10;99.90;;;;;;5113088;28;20361;-34
2023/12/25 14:07:24;;;;;;;;;;;11.00;99.90;;;;;;5114438;28;20382;-35
2023/12/25 14:09:52;;;;;;;;;;;11.00;99.90;;;;;;5096250;28;20380;-34
2023/12/25 14:12:19;;;;;;;;;;;11.00;99.90;;;;;;5114593;28;19949;-35
2023/12/25 14:14:46;;;;;;;;;;;11.00;99.90;;;;;;5095029;28;19934;-35
2023/12/25 14:17:13;;;;;;;;;;;11.00;99.90;;;;;;5111753;28;20467;-35